Time;durP1;ratioP1;P1;durP2;ratioP2;P2;SDS_P1;SDS_P2;PMS_P1;PMS_P2;Temp;Humidity;BMP_temperature;BMP_pressure;BME280_temperature;BME280_humidity;BME280_pressure;Samples;Min_cycle;Max_cycle;Signal;HPM_P1;HPM_P2
2023/04/25 00:06:06;;;;;;;17.67;5.28;;;5.60;99.90;;;;;;5015252;28;20049;-57
2023/04/25 00:23:22;;;;;;;21.17;3.83;;;5.50;99.90;;;;;;4638883;28;20095;-57
2023/04/25 00:33:10;;;;;;;23.83;4.22;;;6.10;99.90;;;;;;5002763;28;20020;-57
2023/04/25 01:47:06;;;;;;;21.40;5.43;;;5.10;99.90;;;;;;5011942;28;20127;-57
2023/04/25 01:50:11;;;;;;;16.70;3.25;;;4.80;99.90;;;;;;5009680;28;20049;-57
2023/04/25 02:01:30;;;;;;;18.50;2.70;;;4.70;99.90;;;;;;5027637;28;20036;-57
2023/04/25 02:15:46;;;;;;;20.50;2.75;;;4.50;99.90;;;;;;5034223;28;20032;-57
2023/04/25 02:30:53;;;;;;;14.95;2.45;;;4.50;99.90;;;;;;5033972;28;20415;-57
2023/04/25 03:06:40;;;;;;;13.05;2.47;;;4.30;99.90;;;;;;5022705;28;20145;-57
2023/04/25 03:46:32;;;;;;;13.48;1.50;;;4.20;99.90;;;;;;5007489;28;20122;-57
2023/04/25 04:04:27;;;;;;;13.43;1.30;;;4.20;99.90;;;;;;5035070;28;20967;-57
2023/04/25 04:11:24;;;;;;;13.38;1.85;;;4.20;99.90;;;;;;5017897;28;20061;-57
2023/04/25 04:27:03;;;;;;;9.85;1.50;;;4.00;99.90;;;;;;4984937;28;20168;-57
2023/04/25 04:59:44;;;;;;;8.52;1.02;;;5.30;99.90;;;;;;5018427;28;20126;-57
2023/04/25 05:42:19;;;;;;;12.30;1.50;;;5.70;99.90;;;;;;4999979;28;20076;-57
2023/04/25 05:56:06;;;;;;;9.40;2.10;;;4.90;99.90;;;;;;5032674;28;20035;-57
2023/04/25 06:06:15;;;;;;;10.05;1.38;;;4.90;99.90;;;;;;5030216;28;20422;-57
2023/04/25 06:16:50;;;;;;;8.32;1.20;;;6.50;99.90;;;;;;5013597;28;20039;-57
2023/04/25 06:19:51;;;;;;;11.25;1.08;;;7.20;99.90;;;;;;5009376;28;20145;-58
2023/04/25 06:51:04;;;;;;;5.00;0.70;;;7.30;99.90;;;;;;5011744;28;20338;-57
2023/04/25 06:57:17;;;;;;;5.70;0.75;;;7.20;99.90;;;;;;5032040;28;20094;-58
2023/04/25 07:11:05;;;;;;;7.63;0.60;;;9.20;99.90;;;;;;5030865;28;20083;-57
2023/04/25 08:08:51;;;;;;;5.05;0.30;;;9.00;99.90;;;;;;5029661;28;20152;-57
2023/04/25 08:12:22;;;;;;;6.00;0.80;;;9.20;99.90;;;;;;4950846;28;20047;-57
2023/04/25 08:15:22;;;;;;;7.13;0.60;;;9.30;99.90;;;;;;4913777;28;20046;-57
2023/04/25 08:21:56;;;;;;;4.68;0.40;;;9.30;99.90;;;;;;4894248;28;20105;-57
2023/04/25 08:30:05;;;;;;;12.13;2.55;;;9.50;99.90;;;;;;4895754;29;20082;-58
2023/04/25 08:46:49;;;;;;;8.15;0.40;;;9.80;99.90;;;;;;4840547;29;20065;-64
2023/04/25 09:00:08;;;;;;;5.72;0.35;;;11.20;99.90;;;;;;4928443;28;20050;-61
2023/04/25 09:38:13;;;;;;;5.07;0.30;;;10.10;99.90;;;;;;4993368;28;20474;-56
2023/04/25 09:44:54;;;;;;;1.48;0.20;;;9.70;99.90;;;;;;5047375;28;20317;-57
2023/04/25 09:47:23;;;;;;;3.92;0.35;;;8.70;99.90;;;;;;5003940;28;20068;-59
2023/04/25 09:50:24;;;;;;;2.47;0.20;;;9.70;99.90;;;;;;4969321;28;20123;-61
2023/04/25 09:53:05;;;;;;;4.38;0.40;;;9.80;99.90;;;;;;4930215;28;20038;-60
2023/04/25 09:55:33;;;;;;;4.05;0.20;;;10.00;99.90;;;;;;4959025;28;20039;-63
2023/04/25 09:58:07;;;;;;;5.05;0.30;;;10.20;99.90;;;;;;4915206;28;20575;-60
2023/04/25 10:00:35;;;;;;;4.20;0.45;;;10.50;99.90;;;;;;4956773;28;21169;-66
2023/04/25 10:03:05;;;;;;;8.45;0.50;;;10.70;99.90;;;;;;4968903;28;20088;-59
2023/04/25 10:05:35;;;;;;;4.78;0.32;;;10.90;99.90;;;;;;5026865;28;20036;-58
2023/04/25 10:08:03;;;;;;;2.90;0.40;;;11.30;99.90;;;;;;4995664;28;21587;-57
2023/04/25 10:10:35;;;;;;;3.95;0.30;;;11.30;99.90;;;;;;4989098;28;20073;-55
2023/04/25 10:13:03;;;;;;;4.03;0.77;;;11.30;99.90;;;;;;5009882;28;20091;-56
2023/04/25 10:15:29;;;;;;;3.90;0.30;;;11.40;99.90;;;;;;5012212;28;20037;-59
2023/04/25 10:17:56;;;;;;;7.45;0.70;;;10.80;99.90;;;;;;4977865;28;20287;-58
2023/04/25 10:20:23;;;;;;;4.38;0.35;;;10.50;99.90;;;;;;4988467;28;20061;-54
2023/04/25 10:22:53;;;;;;;2.40;0.45;;;10.30;99.90;;;;;;5005367;28;20050;-52
2023/04/25 10:25:20;;;;;;;4.70;0.30;;;9.80;99.90;;;;;;5004995;28;20045;-49
2023/04/25 10:27:45;;;;;;;3.70;0.38;;;9.50;99.90;;;;;;5004618;28;20069;-56
2023/04/25 10:30:15;;;;;;;4.60;1.30;;;8.80;99.90;;;;;;5005179;28;20148;-61
2023/04/25 10:32:45;;;;;;;5.57;0.38;;;8.90;99.90;;;;;;5013096;28;20176;-59
2023/04/25 10:35:15;;;;;;;3.53;0.10;;;8.80;99.90;;;;;;5011505;28;20045;-60
2023/04/25 10:38:04;;;;;;;3.67;0.30;;;8.70;99.90;;;;;;5024336;28;20041;-56
2023/04/25 10:40:31;;;;;;;3.92;0.68;;;8.70;99.90;;;;;;5032500;28;20073;-55
2023/04/25 10:43:33;;;;;;;9.75;2.22;;;9.00;99.90;;;;;;5024747;28;20111;-49
2023/04/25 10:46:03;;;;;;;4.57;0.70;;;9.00;99.90;;;;;;5022590;28;20037;-45
2023/04/25 10:48:30;;;;;;;6.63;0.30;;;9.30;99.90;;;;;;5022199;28;20284;-47
2023/04/25 10:51:09;;;;;;;5.45;0.60;;;9.40;99.90;;;;;;5022737;28;20068;-53
2023/04/25 10:53:35;;;;;;;4.95;0.43;;;9.70;99.90;;;;;;5010392;28;20036;-52
2023/04/25 10:56:10;;;;;;;6.03;0.32;;;9.80;99.90;;;;;;5002204;28;20046;-52
2023/04/25 10:58:36;;;;;;;1.33;0.30;;;10.00;99.90;;;;;;5001690;28;20040;-49
2023/04/25 11:01:02;;;;;;;9.32;0.60;;;10.10;99.90;;;;;;5002615;28;20029;-50
2023/04/25 11:03:27;;;;;;;5.55;0.88;;;10.00;99.90;;;;;;5014573;28;20470;-53
2023/04/25 11:05:54;;;;;;;5.90;1.15;;;9.90;99.90;;;;;;5018687;28;20037;-53
2023/04/25 11:08:35;;;;;;;4.47;0.88;;;10.00;99.90;;;;;;5019591;28;20069;-51
2023/04/25 11:11:01;;;;;;;7.90;0.55;;;10.20;99.90;;;;;;5017458;28;20625;-54
2023/04/25 11:13:31;;;;;;;4.18;0.40;;;10.30;99.90;;;;;;5011171;28;20774;-54
2023/04/25 11:15:56;;;;;;;3.83;0.38;;;10.40;99.90;;;;;;5021113;28;20034;-52
2023/04/25 11:18:27;;;;;;;6.43;0.60;;;10.40;99.90;;;;;;5021877;28;20380;-57
2023/04/25 11:20:52;;;;;;;4.57;0.38;;;10.40;99.90;;;;;;5021805;28;20098;-57
2023/04/25 11:23:18;;;;;;;5.40;0.63;;;10.30;99.90;;;;;;5021528;28;23126;-54
2023/04/25 11:25:44;;;;;;;7.57;0.52;;;10.30;99.90;;;;;;5020491;28;20053;-53
2023/04/25 11:28:10;;;;;;;5.90;0.47;;;10.40;99.90;;;;;;5022270;28;20049;-54
2023/04/25 11:30:35;;;;;;;7.57;1.02;;;10.40;99.90;;;;;;5021602;28;20056;-53
2023/04/25 11:33:03;;;;;;;5.18;0.77;;;10.30;99.90;;;;;;5007809;28;20122;-57
2023/04/25 11:35:28;;;;;;;6.45;0.70;;;12.30;99.90;;;;;;5011713;28;20033;-56
2023/04/25 11:37:54;;;;;;;9.07;0.70;;;10.10;99.90;;;;;;5013548;28;20927;-57
2023/04/25 11:40:20;;;;;;;6.97;1.05;;;9.90;99.90;;;;;;5018559;28;20064;-56
2023/04/25 11:42:47;;;;;;;9.38;1.15;;;9.70;99.90;;;;;;5020734;28;20045;-49
2023/04/25 11:45:13;;;;;;;6.03;0.50;;;9.90;99.90;;;;;;5021979;28;20047;-50
2023/04/25 11:47:40;;;;;;;4.65;0.50;;;9.60;99.90;;;;;;5021301;28;20065;-49
2023/04/25 11:50:07;;;;;;;4.10;0.50;;;9.70;99.90;;;;;;5021700;28;20081;-49
2023/04/25 11:52:47;;;;;;;3.33;0.50;;;9.60;99.90;;;;;;5021327;28;20057;-53
2023/04/25 11:55:15;;;;;;;8.55;0.70;;;10.30;99.90;;;;;;5014368;28;20159;-50
2023/04/25 11:57:42;;;;;;;10.88;0.90;;;9.50;99.90;;;;;;5017297;28;20033;-49
2023/04/25 12:00:16;;;;;;;6.93;0.60;;;9.50;99.90;;;;;;5020846;28;20142;-53
2023/04/25 12:02:46;;;;;;;5.25;0.43;;;9.60;99.90;;;;;;5021005;28;20112;-48
2023/04/25 12:05:15;;;;;;;4.90;0.50;;;9.60;99.90;;;;;;5019875;28;20105;-48
2023/04/25 12:07:41;;;;;;;4.13;0.60;;;9.70;99.90;;;;;;5019189;28;20051;-61
2023/04/25 12:10:25;;;;;;;3.22;0.30;;;9.90;99.90;;;;;;5022249;28;20045;-57
2023/04/25 12:12:51;;;;;;;4.13;0.40;;;10.00;99.90;;;;;;5020028;28;20159;-53
2023/04/25 12:15:22;;;;;;;3.70;0.40;;;9.90;99.90;;;;;;5021750;28;20030;-51
2023/04/25 12:17:54;;;;;;;6.60;0.50;;;9.80;99.90;;;;;;5019655;28;20033;-47
2023/04/25 12:20:25;;;;;;;4.63;0.50;;;9.70;99.90;;;;;;5022144;28;20421;-58
2023/04/25 12:22:52;;;;;;;8.77;1.10;;;9.60;99.90;;;;;;5021743;28;20083;-48
2023/04/25 12:25:38;;;;;;;7.00;0.60;;;9.60;99.90;;;;;;5021853;28;20037;-49
2023/04/25 12:28:14;;;;;;;3.63;0.38;;;9.40;99.90;;;;;;5021311;28;20060;-46
2023/04/25 12:31:00;;;;;;;4.32;0.40;;;10.70;99.90;;;;;;5021262;28;20754;-50
2023/04/25 12:33:27;;;;;;;3.40;0.40;;;9.50;99.50;;;;;;5005798;28;20493;-48
2023/04/25 12:35:54;;;;;;;3.15;0.52;;;9.80;98.80;;;;;;5013488;28;20037;-49
2023/04/25 12:38:27;;;;;;;4.80;0.40;;;9.80;99.20;;;;;;5015963;28;20127;-47
2023/04/25 12:40:53;;;;;;;4.60;0.40;;;10.00;98.20;;;;;;5015290;28;20045;-46
2023/04/25 12:43:19;;;;;;;5.10;0.50;;;10.20;98.30;;;;;;5021536;28;20045;-52
2023/04/25 12:45:51;;;;;;;4.88;0.30;;;10.30;98.40;;;;;;5020839;28;20041;-45
2023/04/25 12:48:17;;;;;;;8.00;0.70;;;10.30;97.80;;;;;;5021584;28;20034;-46
2023/04/25 12:50:43;;;;;;;6.22;0.40;;;10.70;98.30;;;;;;5021750;28;20041;-47
2023/04/25 12:53:09;;;;;;;1.52;0.28;;;10.40;98.50;;;;;;5021462;28;20040;-45
2023/04/25 12:55:35;;;;;;;2.13;0.20;;;10.40;97.80;;;;;;5021056;28;20431;-47
2023/04/25 12:58:01;;;;;;;3.80;0.40;;;10.10;97.80;;;;;;5018609;28;20047;-50
2023/04/25 13:00:27;;;;;;;5.90;0.47;;;9.90;97.60;;;;;;5025662;28;20037;-49
2023/04/25 13:02:53;;;;;;;8.82;0.40;;;9.80;97.50;;;;;;5027358;28;20400;-52
2023/04/25 13:05:18;;;;;;;5.38;0.43;;;9.70;98.00;;;;;;5025874;28;20041;-53
2023/04/25 13:07:44;;;;;;;4.38;0.63;;;9.90;98.60;;;;;;5024673;28;20438;-51
2023/04/25 13:10:10;;;;;;;6.03;0.75;;;9.90;98.90;;;;;;5025962;28;20048;-54
2023/04/25 13:12:36;;;;;;;2.17;0.60;;;9.80;98.30;;;;;;5027566;28;20087;-52
2023/04/25 13:15:02;;;;;;;5.88;0.30;;;9.80;97.90;;;;;;5027819;28;20726;-50
2023/04/25 13:17:27;;;;;;;7.78;1.00;;;9.80;97.90;;;;;;5027706;28;20056;-51
2023/04/25 13:19:53;;;;;;;5.60;0.60;;;9.80;98.00;;;;;;5027700;28;20045;-50
2023/04/25 13:22:20;;;;;;;6.75;0.52;;;9.80;97.80;;;;;;5027567;28;20057;-48
2023/04/25 13:24:46;;;;;;;6.00;0.35;;;9.80;97.70;;;;;;5027497;28;20037;-50
2023/04/25 13:27:13;;;;;;;6.45;0.32;;;9.90;97.10;;;;;;5027686;28;20045;-48
2023/04/25 13:29:40;;;;;;;4.88;0.40;;;10.10;96.70;;;;;;5025692;28;20050;-50
2023/04/25 13:32:06;;;;;;;5.28;0.30;;;10.00;96.40;;;;;;5027194;28;20670;-49
2023/04/25 13:34:32;;;;;;;5.10;0.30;;;9.80;96.50;;;;;;5027520;28;20053;-52
2023/04/25 13:36:58;;;;;;;4.13;0.50;;;9.60;96.30;;;;;;5027393;28;20049;-50
2023/04/25 13:39:24;;;;;;;5.43;0.50;;;9.50;96.60;;;;;;5027932;28;20395;-52
2023/04/25 13:41:50;;;;;;;3.38;0.30;;;9.80;97.20;;;;;;5027405;28;20132;-49
2023/04/25 13:44:16;;;;;;;2.40;1.02;;;9.70;97.10;;;;;;5023372;28;20156;-49
2023/04/25 13:46:42;;;;;;;3.30;0.22;;;10.00;97.30;;;;;;5025557;28;20046;-48
2023/04/25 13:49:07;;;;;;;3.28;0.32;;;9.90;97.10;;;;;;5026935;28;20041;-53
2023/04/25 13:51:34;;;;;;;3.55;0.38;;;9.90;96.30;;;;;;5026729;28;20129;-52
2023/04/25 13:54:00;;;;;;;5.60;0.30;;;9.60;95.90;;;;;;5027294;28;20069;-52
2023/04/25 13:56:26;;;;;;;5.93;0.38;;;9.90;96.20;;;;;;5027250;28;20077;-52
2023/04/25 13:58:52;;;;;;;4.13;0.60;;;9.40;96.70;;;;;;5026990;28;20055;-63
2023/04/25 14:01:21;;;;;;;2.75;0.30;;;9.40;96.60;;;;;;4982999;28;20054;-55
2023/04/25 14:03:47;;;;;;;3.88;0.55;;;9.50;97.30;;;;;;5007555;28;20524;-57
2023/04/25 14:06:13;;;;;;;5.18;0.50;;;9.60;97.60;;;;;;5020103;28;20056;-57
2023/04/25 14:08:39;;;;;;;6.72;0.75;;;9.60;97.50;;;;;;5018223;28;20120;-58
2023/04/25 14:11:05;;;;;;;6.35;0.47;;;9.60;97.80;;;;;;5018154;28;20045;-61
2023/04/25 14:13:31;;;;;;;5.57;0.63;;;9.60;97.60;;;;;;5017958;28;20037;-62
2023/04/25 14:15:56;;;;;;;5.57;0.40;;;9.80;97.40;;;;;;5017412;28;20052;-56
2023/04/25 14:18:22;;;;;;;9.25;1.60;;;9.70;97.20;;;;;;5020140;28;20044;-57
2023/04/25 14:20:48;;;;;;;7.00;0.70;;;9.60;97.20;;;;;;5023067;28;20041;-54
2023/04/25 14:23:14;;;;;;;8.57;0.52;;;9.60;96.50;;;;;;5023533;28;20125;-55
2023/04/25 14:25:41;;;;;;;9.40;0.95;;;9.50;95.80;;;;;;5023507;28;20037;-54
2023/04/25 14:28:07;;;;;;;3.80;0.40;;;9.60;95.80;;;;;;5023976;28;20060;-55
2023/04/25 14:30:33;;;;;;;3.70;0.30;;;9.40;96.10;;;;;;5022936;28;20053;-56
2023/04/25 14:32:58;;;;;;;4.50;0.40;;;9.30;95.50;;;;;;5022041;28;20049;-59
2023/04/25 14:35:24;;;;;;;5.53;0.40;;;9.30;95.40;;;;;;5023156;28;20116;-58
2023/04/25 14:37:50;;;;;;;3.30;0.50;;;9.50;95.70;;;;;;5022368;28;20045;-57
2023/04/25 14:40:16;;;;;;;4.03;0.47;;;9.10;96.00;;;;;;5022475;28;20496;-57
2023/04/25 14:42:42;;;;;;;3.38;0.47;;;9.60;96.40;;;;;;5021178;28;20076;-61
2023/04/25 14:45:09;;;;;;;5.38;0.60;;;9.10;96.60;;;;;;5022676;28;20140;-57
2023/04/25 14:47:38;;;;;;;5.88;0.80;;;9.10;96.80;;;;;;5022652;28;20029;-57
2023/04/25 14:50:04;;;;;;;5.60;0.47;;;9.00;96.80;;;;;;5022409;28;20030;-57
2023/04/25 14:52:30;;;;;;;2.47;0.30;;;9.00;96.80;;;;;;5022737;28;20029;-57
2023/04/25 14:54:56;;;;;;;3.28;0.52;;;8.90;96.80;;;;;;5022385;28;20044;-56
2023/04/25 14:57:22;;;;;;;4.97;0.75;;;9.30;97.40;;;;;;5021337;28;20045;-58
2023/04/25 14:59:47;;;;;;;5.07;0.40;;;9.00;97.20;;;;;;4997202;28;20049;-57
2023/04/25 15:02:13;;;;;;;10.93;0.73;;;9.10;97.20;;;;;;5015373;28;20045;-56
2023/04/25 15:04:39;;;;;;;3.92;0.50;;;9.40;96.80;;;;;;5023336;28;20044;-57
2023/04/25 15:07:05;;;;;;;4.95;0.57;;;8.90;96.40;;;;;;5023060;28;20061;-56
2023/04/25 15:09:30;;;;;;;6.00;0.50;;;8.90;96.70;;;;;;5023010;28;20596;-55
2023/04/25 15:11:57;;;;;;;6.43;0.55;;;8.90;97.00;;;;;;5021392;28;20192;-56
2023/04/25 15:14:23;;;;;;;4.18;0.75;;;9.10;96.80;;;;;;5021652;28;20076;-54
2023/04/25 15:16:48;;;;;;;4.47;1.95;;;9.20;96.60;;;;;;5021373;28;20136;-61
2023/04/25 15:19:14;;;;;;;5.25;0.30;;;9.50;96.10;;;;;;5019020;28;20073;-58
2023/04/25 15:21:40;;;;;;;5.40;0.98;;;9.20;95.80;;;;;;5007414;28;22750;-56
2023/04/25 15:24:06;;;;;;;7.88;0.45;;;9.40;95.40;;;;;;5017682;28;20047;-55
2023/04/25 15:26:31;;;;;;;10.05;0.68;;;9.10;94.80;;;;;;5022184;28;20037;-57
2023/04/25 15:28:57;;;;;;;3.13;0.30;;;9.00;94.40;;;;;;5020048;28;20045;-53
2023/04/25 15:31:23;;;;;;;3.90;0.40;;;8.90;94.70;;;;;;5021436;28;20057;-55
2023/04/25 15:33:49;;;;;;;4.35;0.50;;;8.90;95.00;;;;;;5020907;28;20041;-56
2023/04/25 15:36:16;;;;;;;10.73;0.80;;;8.80;95.80;;;;;;5021144;28;20049;-56
2023/04/25 15:38:42;;;;;;;7.22;0.77;;;8.90;95.70;;;;;;5019472;28;20085;-55
2023/04/25 15:41:07;;;;;;;3.67;0.52;;;8.90;96.00;;;;;;5022040;28;20741;-56
2023/04/25 15:43:37;;;;;;;4.75;0.28;;;8.90;95.90;;;;;;5016062;28;20730;-57
2023/04/25 15:46:03;;;;;;;3.53;0.47;;;9.10;96.00;;;;;;5022128;28;20140;-58
2023/04/25 15:52:20;;;;;;;4.65;1.40;;;8.60;95.90;;;;;;4971507;28;20131;-52
2023/04/25 16:03:24;;;;;;;4.78;0.32;;;8.30;96.10;;;;;;4927521;28;20048;-52
2023/04/25 16:14:12;;;;;;;6.15;0.35;;;8.00;95.50;;;;;;4925510;28;20097;-54
2023/04/25 16:24:08;;;;;;;6.80;0.77;;;7.60;96.20;;;;;;4909061;28;20033;-55
2023/04/25 17:09:27;;;;;;;7.55;0.73;;;7.30;96.70;;;;;;4934862;28;20033;-54
2023/04/25 17:12:09;;;;;;;4.68;0.30;;;7.20;97.00;;;;;;4932861;28;20046;-56
2023/04/25 17:32:56;;;;;;;3.47;0.43;;;6.70;98.00;;;;;;4955720;28;20056;-57
2023/04/25 18:13:42;;;;;;;5.22;0.60;;;5.90;99.60;;;;;;4973828;28;20056;-58
2023/04/25 18:53:15;;;;;;;9.15;0.73;;;5.60;99.90;;;;;;4954236;28;20156;-55
2023/04/25 18:55:41;;;;;;;4.15;0.75;;;5.00;99.90;;;;;;4975313;28;20042;-56
2023/04/25 19:02:27;;;;;;;3.88;0.47;;;4.80;99.90;;;;;;4971419;28;20068;-50
2023/04/25 19:54:17;;;;;;;5.47;1.38;;;4.00;99.90;;;;;;4934125;28;20057;-54
2023/04/25 20:10:22;;;;;;;5.18;0.75;;;4.80;99.90;;;;;;4942436;28;20515;-62
2023/04/25 20:25:21;;;;;;;6.85;1.05;;;3.00;99.90;;;;;;4947123;28;20037;-53
2023/04/25 20:42:31;;;;;;;10.10;1.83;;;4.20;99.90;;;;;;4976855;28;20109;-57
2023/04/25 20:45:57;;;;;;;4.90;1.30;;;2.80;99.90;;;;;;4974100;28;20168;-57
2023/04/25 20:48:32;;;;;;;12.07;2.03;;;2.80;99.90;;;;;;5006023;28;20122;-57
2023/04/25 21:11:02;;;;;;;3.97;1.45;;;2.70;99.90;;;;;;4960187;28;20052;-57
2023/04/25 21:17:30;;;;;;;4.68;1.35;;;2.70;99.90;;;;;;4888995;28;20756;-57
2023/04/25 22:38:40;;;;;;;3.60;1.35;;;2.00;99.90;;;;;;4708211;28;9999735;-57
2023/04/25 22:41:07;;;;;;;6.57;1.77;;;2.10;99.90;;;;;;5062195;28;20051;-56
2023/04/25 22:43:33;;;;;;;7.38;1.50;;;2.20;99.90;;;;;;5067260;28;20044;-57
2023/04/25 22:46:01;;;;;;;9.55;1.80;;;2.20;99.90;;;;;;5064711;28;20036;-57
2023/04/25 22:48:26;;;;;;;10.23;1.77;;;2.20;99.90;;;;;;5065358;28;20087;-56
2023/04/25 22:51:01;;;;;;;6.20;1.73;;;2.10;99.90;;;;;;5062660;28;20123;-57
2023/04/25 22:53:29;;;;;;;11.32;2.30;;;2.30;99.90;;;;;;5064053;28;20115;-56
2023/04/25 22:55:58;;;;;;;8.98;2.10;;;2.40;99.90;;;;;;5062999;28;20037;-57
2023/04/25 22:58:24;;;;;;;14.35;1.73;;;2.50;99.90;;;;;;4713875;28;10000180;-57
2023/04/25 23:00:50;;;;;;;7.00;1.80;;;2.70;99.90;;;;;;5067229;28;20048;-57
2023/04/25 23:03:18;;;;;;;7.30;2.28;;;2.60;99.90;;;;;;5067838;28;20589;-57
2023/04/25 23:05:45;;;;;;;6.82;1.30;;;2.60;99.90;;;;;;5067457;28;20588;-57
2023/04/25 23:08:10;;;;;;;5.47;1.70;;;2.70;99.90;;;;;;5066893;28;20105;-57
2023/04/25 23:10:36;;;;;;;6.20;2.20;;;2.70;99.90;;;;;;5067176;28;20626;-57
2023/04/25 23:13:02;;;;;;;5.65;1.80;;;2.60;99.90;;;;;;5065007;28;20080;-57
2023/04/25 23:15:30;;;;;;;6.28;1.40;;;2.60;99.90;;;;;;5064814;28;20045;-57
2023/04/25 23:17:56;;;;;;;10.10;1.45;;;2.50;99.90;;;;;;5066475;28;20487;-57
2023/04/25 23:20:23;;;;;;;6.18;1.83;;;2.50;99.90;;;;;;4707138;28;10000582;-57
2023/04/25 23:22:49;;;;;;;7.88;1.63;;;2.40;99.90;;;;;;5033746;28;20098;-57
2023/04/25 23:25:15;;;;;;;11.43;1.83;;;2.40;99.90;;;;;;4714670;28;10000293;-57
2023/04/25 23:27:41;;;;;;;8.90;1.70;;;2.80;99.90;;;;;;5061152;28;20570;-57
2023/04/25 23:30:08;;;;;;;12.70;2.78;;;2.10;99.90;;;;;;5065509;28;20793;-57
2023/04/25 23:32:41;;;;;;;10.40;2.25;;;2.10;99.90;;;;;;5033496;28;20069;-58
2023/04/25 23:35:07;;;;;;;;;;;2.10;99.90;;;;;;5015143;28;20053;-57
2023/04/25 23:37:36;;;;;;;6.30;1.30;;;2.20;99.90;;;;;;5042523;28;19927;-57
